Home   Weather   Rehoboth   Past weeks
Flag for USA

Past Weather in Rehoboth, Massachusetts, USA — Yesterday and Last 2 Weeks

Currently: 76 °F. Scattered clouds. (Weather station: Green State Airport, USA). See more current weather

Past Weather in Rehoboth — Graph

°F

Rehoboth Temperature Yesterday

Maximum temperature yesterday: 84 °F (at 3:51 pm)
Minimum temperature yesterday: 64 °F (at 12:15 am)
Average temperature yesterday: 72 °F

High & Low Weather Summary for the Past Weeks

 TemperatureHumidityPressure
High93 °F (Jun 20, 2:51 pm)100% (Jun 15, 1:02 am)30.33 "Hg (Jun 15, 1:02 am)
Low54 °F (Jun 11, 3:51 am)32% (Jun 15, 2:51 pm)29.52 "Hg (Jun 24, 6:51 am)
Average70 °F76%29.99 "Hg
* Reported Jun 9 7:51 am — Jun 24 7:51 am, Rehoboth. Weather by CustomWeather, © 2024

Note: Actual official high and low records may vary slightly from our data, if they occured in-between our weather recording intervals... More about our weather records

Rehoboth Weather History for the Previous 24 Hours

Scroll right to see more
 ConditionsComfort  
Time TempWeatherWind HumidityBarometerVisibility
7:51 am
Mon, Jun 24
76 °FScattered clouds.12 mph82%29.52 "Hg10 mi
6:51 am74 °FScattered clouds.7 mph91%29.52 "Hg10 mi
6:22 am73 °FScattered clouds.7 mph90%29.52 "Hg7 mi
5:51 am72 °FFog.8 mph93%29.52 "Hg6 mi
5:22 am71 °FScattered clouds.12 mph93%29.53 "Hg8 mi
4:51 am71 °FOvercast.10 mph93%29.53 "Hg9 mi
4:22 am70 °FPassing clouds.9 mph93%29.54 "Hg10 mi
3:51 am71 °FClear.12 mph90%29.54 "Hg10 mi
2:51 am71 °FPassing clouds.13 mph93%29.54 "Hg10 mi
1:51 am73 °FLight rain. Passing clouds.14 mph88%29.55 "Hg10 mi
12:51 am73 °FPassing clouds.16 mph90%29.57 "Hg10 mi
11:51 pm
Sun, Jun 23
73 °FOvercast.7 mph97%29.57 "Hg9 mi
10:51 pm71 °FMostly cloudy.6 mph93%29.58 "Hg10 mi
10:24 pm72 °FMostly cloudy.10 mph91%29.59 "Hg10 mi
9:51 pm75 °FThunderstorms. Fog.12 mph90%29.60 "Hg4 mi
9:36 pm76 °FThunderstorms. Overcast.21 mph85%29.61 "Hg10 mi
8:51 pm76 °FOvercast.16 mph88%29.58 "Hg10 mi
7:51 pm76 °FMostly cloudy.15 mph88%29.59 "Hg9 mi
6:51 pm77 °FPartly sunny.14 mph85%29.60 "Hg9 mi
5:51 pm79 °FPartly sunny.16 mph82%29.59 "Hg10 mi
4:51 pm81 °FBroken clouds.16 mph77%29.61 "Hg10 mi
3:51 pm84 °FBroken clouds.17 mph74%29.63 "Hg10 mi
2:51 pm82 °FPartly sunny.15 mph77%29.67 "Hg10 mi
1:51 pm82 °FPartly sunny.16 mph77%29.70 "Hg10 mi
12:51 pm81 °FPartly sunny.13 mph82%29.72 "Hg10 mi
12:31 pm81 °FBroken clouds.9 mph82%29.73 "Hg10 mi
11:51 am79 °FPartly sunny.16 mph84%29.75 "Hg10 mi
10:51 am76 °FLow clouds.12 mph94%29.77 "Hg10 mi
9:51 am74 °FDrizzle. Fog.12 mph100%29.80 "Hg4 mi
9:33 am74 °FFog.13 mph97%29.81 "Hg2 mi
Weather by CustomWeather, © 2024

See weather overview